createdAt,value
2023-02-19T00:01:34.015Z,99967.19
2023-02-19T00:04:06.198Z,99966.72
2023-02-19T00:06:35.338Z,99964.06
2023-02-19T00:09:03.829Z,99964.34
2023-02-19T00:11:33.819Z,99961.53
2023-02-19T00:14:03.602Z,99955.34
2023-02-19T00:16:33.165Z,99956.88
2023-02-19T00:19:04.552Z,99947.56
2023-02-19T00:21:32.565Z,99952.41
2023-02-19T00:24:03.095Z,99956.88
2023-02-19T00:26:31.517Z,99941.81
2023-02-19T00:29:01.281Z,99950.44
2023-02-19T00:31:32.637Z,99936.25
2023-02-19T00:34:04.388Z,99948.25
2023-02-19T00:36:33.570Z,99948.44
2023-02-19T00:39:01.713Z,99951.50
2023-02-19T00:41:29.392Z,99939.72
2023-02-19T00:43:59.728Z,99946.72
2023-02-19T00:46:29.104Z,99941.47
2023-02-19T00:48:57.922Z,99941.25
2023-02-19T00:51:29.779Z,99949.78
2023-02-19T00:53:58.250Z,99950.41
2023-02-19T00:56:26.137Z,99944.78
2023-02-19T00:58:54.469Z,99938.97
2023-02-19T01:01:25.172Z,99933.00
2023-02-19T01:03:53.194Z,99928.53
2023-02-19T01:06:22.019Z,99921.34
2023-02-19T01:08:51.779Z,99925.47
2023-02-19T01:11:20.114Z,99931.22
2023-02-19T01:13:48.574Z,99923.03
2023-02-19T01:16:18.793Z,99915.94
2023-02-19T01:18:46.877Z,99917.06
2023-02-19T01:21:18.011Z,99901.97
2023-02-19T01:23:45.794Z,99905.34
2023-02-19T01:26:17.817Z,99908.00
2023-02-19T01:28:46.156Z,99908.28
2023-02-19T01:31:16.807Z,99911.66
2023-02-19T01:33:45.777Z,99905.03
2023-02-19T01:36:14.327Z,99902.25
2023-02-19T01:38:42.207Z,99893.16
2023-02-19T01:41:12.581Z,99887.47
2023-02-19T01:46:34.539Z,99881.75
2023-02-19T01:49:06.960Z,99874.56
2023-02-19T01:51:36.750Z,99873.50
2023-02-19T01:54:08.754Z,99869.16
2023-02-19T01:56:38.528Z,99859.31
2023-02-19T01:59:07.564Z,99856.69
2023-02-19T02:01:39.015Z,99852.19
2023-02-19T02:04:09.193Z,99851.34
2023-02-19T02:06:43.950Z,99840.47
2023-02-19T02:09:12.918Z,99835.47
2023-02-19T02:11:44.500Z,99841.81
2023-02-19T02:14:12.983Z,99833.94
2023-02-19T02:16:54.766Z,99834.28
2023-02-19T02:19:42.673Z,99837.53
2023-02-19T02:22:17.153Z,99821.91
2023-02-19T02:25:29.299Z,99827.28
2023-02-19T02:28:10.571Z,99825.25
2023-02-19T02:30:43.860Z,99821.19
2023-02-19T02:33:17.541Z,99827.34
2023-02-19T02:35:50.281Z,99817.63
2023-02-19T02:38:20.391Z,99822.31
2023-02-19T02:40:48.745Z,99823.31
2023-02-19T02:43:16.339Z,99815.66
2023-02-19T02:45:45.908Z,99823.81
2023-02-19T02:48:33.485Z,99818.47
2023-02-19T02:51:09.740Z,99823.66
2023-02-19T02:53:41.645Z,99819.47
2023-02-19T02:56:11.240Z,99808.44
2023-02-19T02:58:39.587Z,99806.81
2023-02-19T03:01:12.755Z,99811.81
2023-02-19T03:03:43.872Z,99801.34
2023-02-19T03:06:15.656Z,99792.66
2023-02-19T03:08:48.282Z,99794.81
2023-02-19T03:11:16.606Z,99795.31
2023-02-19T03:13:44.159Z,99793.44
2023-02-19T03:16:18.027Z,99796.56
2023-02-19T03:18:49.621Z,99803.72
2023-02-19T03:21:21.059Z,99792.59
2023-02-19T03:23:50.102Z,99779.75
2023-02-19T03:26:20.036Z,99772.28
2023-02-19T03:28:50.352Z,99770.97
2023-02-19T03:31:24.054Z,99765.25
2023-02-19T03:33:55.629Z,99767.25
2023-02-19T03:36:31.139Z,99768.72
2023-02-19T03:39:02.831Z,99771.22
2023-02-19T03:41:36.336Z,99770.88
2023-02-19T03:44:11.059Z,99778.22
2023-02-19T03:46:48.685Z,99768.53
2023-02-19T03:49:24.366Z,99769.16
2023-02-19T03:51:57.964Z,99770.22
2023-02-19T03:54:35.299Z,99773.41
2023-02-19T03:57:10.298Z,99773.09
2023-02-19T03:59:43.480Z,99775.66
2023-02-19T04:02:16.987Z,99773.00
2023-02-19T04:04:47.723Z,99770.97
2023-02-19T04:07:15.965Z,99762.59
2023-02-19T04:09:47.011Z,99768.13
2023-02-19T04:12:16.647Z,99769.09
2023-02-19T04:14:49.190Z,99769.94
2023-02-19T04:17:24.435Z,99767.94
2023-02-19T04:19:54.834Z,99761.41
2023-02-19T04:22:23.452Z,99767.44
2023-02-19T04:24:53.807Z,99765.59
2023-02-19T04:27:21.839Z,99756.56
2023-02-19T04:29:49.480Z,99766.09
2023-02-19T04:32:18.941Z,99767.97
2023-02-19T04:34:46.520Z,99761.47
2023-02-19T04:37:14.463Z,99754.31
2023-02-19T04:39:42.009Z,99757.81
2023-02-19T04:42:11.185Z,99754.13
2023-02-19T04:44:38.648Z,99753.97
2023-02-19T04:47:06.896Z,99757.94
2023-02-19T04:49:35.913Z,99756.81
2023-02-19T04:52:04.240Z,99746.44
2023-02-19T04:54:31.816Z,99754.97
2023-02-19T04:56:59.738Z,99751.25
2023-02-19T04:59:27.734Z,99752.94
2023-02-19T05:01:55.781Z,99743.44
2023-02-19T05:04:23.462Z,99741.25
2023-02-19T05:06:53.028Z,99738.91
2023-02-19T05:09:20.635Z,99738.59
2023-02-19T05:11:48.699Z,99731.25
2023-02-19T05:14:16.278Z,99727.91
2023-02-19T05:16:44.237Z,99728.91
2023-02-19T05:19:12.375Z,99724.41
2023-02-19T05:21:40.691Z,99730.25
2023-02-19T05:24:10.041Z,99729.25
2023-02-19T05:26:38.197Z,99737.78
2023-02-19T05:29:05.938Z,99720.41
2023-02-19T05:31:34.159Z,99711.81
2023-02-19T05:34:01.893Z,99707.47
2023-02-19T05:36:30.544Z,99712.19
2023-02-19T05:38:58.550Z,99715.22
2023-02-19T05:41:29.681Z,99712.69
2023-02-19T05:43:57.770Z,99711.53
2023-02-19T05:46:28.310Z,99709.34
2023-02-19T05:48:56.011Z,99706.84
2023-02-19T05:51:25.665Z,99711.56
2023-02-19T05:53:53.615Z,99705.22
2023-02-19T05:56:31.042Z,99702.38
2023-02-19T05:58:59.478Z,99704.56
2023-02-19T06:01:29.310Z,99708.22
2023-02-19T06:03:58.051Z,99707.22
2023-02-19T06:06:27.303Z,99703.56
2023-02-19T06:08:55.365Z,99704.53
2023-02-19T06:11:24.716Z,99710.91
2023-02-19T06:13:53.831Z,99705.88
2023-02-19T06:16:24.700Z,99711.38
2023-02-19T06:18:52.666Z,99708.72
2023-02-19T06:21:20.909Z,99711.88
2023-02-19T06:23:48.496Z,99716.69
2023-02-19T06:26:18.507Z,99725.06
2023-02-19T06:28:47.349Z,99719.53
2023-02-19T06:31:18.809Z,99719.84
2023-02-19T06:33:46.579Z,99728.34
2023-02-19T06:36:16.842Z,99725.50
2023-02-19T06:38:44.736Z,99727.34
2023-02-19T06:41:14.039Z,99726.00
2023-02-19T06:43:42.019Z,99731.34
2023-02-19T06:46:12.863Z,99731.06
2023-02-19T06:48:43.668Z,99736.75
2023-02-19T06:51:13.439Z,99733.56
2023-02-19T06:53:40.972Z,99744.25
2023-02-19T06:56:22.780Z,99740.78
2023-02-19T06:58:50.499Z,99749.66
2023-02-19T07:01:18.561Z,99751.13
2023-02-19T07:03:47.685Z,99764.28
2023-02-19T07:06:16.026Z,99761.44
2023-02-19T07:08:43.553Z,99768.09
2023-02-19T07:11:11.951Z,99771.94
2023-02-19T07:13:39.612Z,99777.66
2023-02-19T07:16:09.639Z,99776.69
2023-02-19T07:18:37.936Z,99780.16
2023-02-19T07:21:09.542Z,99786.91
2023-02-19T07:23:37.425Z,99780.22
2023-02-19T07:26:08.645Z,99794.28
2023-02-19T07:28:36.141Z,99794.72
2023-02-19T07:31:05.336Z,99798.56
2023-02-19T07:33:32.897Z,99808.69
2023-02-19T07:36:01.010Z,99813.34
2023-02-19T07:38:30.082Z,99819.34
2023-02-19T07:40:59.688Z,99818.19
2023-02-19T07:43:30.822Z,99822.13
2023-02-19T07:45:58.943Z,99835.50
2023-02-19T07:48:26.969Z,99840.16
2023-02-19T07:50:59.210Z,99850.47
2023-02-19T07:53:29.750Z,99854.19
2023-02-19T07:56:12.024Z,99861.56
2023-02-19T07:58:41.115Z,99862.75
2023-02-19T08:01:11.369Z,99863.50
2023-02-19T08:03:39.574Z,99868.28
2023-02-19T08:06:08.580Z,99876.75
2023-02-19T08:08:38.203Z,99879.00
2023-02-19T08:11:07.351Z,99879.47
2023-02-19T08:13:35.050Z,99896.47
2023-02-19T08:16:20.075Z,99902.13
2023-02-19T08:18:51.905Z,99914.06
2023-02-19T08:21:20.020Z,99906.59
2023-02-19T08:23:50.994Z,99916.41
2023-02-19T08:26:19.401Z,99923.41
2023-02-19T08:28:48.255Z,99921.78
2023-02-19T08:31:16.769Z,99930.47
2023-02-19T08:33:44.406Z,99926.25
2023-02-19T08:36:12.864Z,99927.38
2023-02-19T08:38:40.564Z,99932.44
2023-02-19T08:41:12.406Z,99933.00
2023-02-19T08:43:40.818Z,99939.31
2023-02-19T08:46:12.210Z,99945.19
2023-02-19T08:48:40.856Z,99945.75
2023-02-19T08:51:11.850Z,99957.50
2023-02-19T08:53:40.775Z,99961.59
2023-02-19T08:56:13.158Z,99963.97
2023-02-19T08:58:40.947Z,99981.34
2023-02-19T09:01:11.225Z,99983.88
2023-02-19T09:03:39.261Z,99987.06
2023-02-19T09:06:08.179Z,99990.44
2023-02-19T09:08:35.807Z,99996.78
2023-02-19T09:11:07.174Z,100002.78
2023-02-19T09:13:36.302Z,100005.06
2023-02-19T09:16:05.427Z,100010.50
2023-02-19T09:18:33.479Z,100000.97
2023-02-19T09:21:02.198Z,100009.09
2023-02-19T09:23:29.872Z,100015.97
2023-02-19T09:26:01.684Z,100015.25
2023-02-19T09:28:29.361Z,100020.19
2023-02-19T09:31:04.202Z,100030.88
2023-02-19T09:33:31.839Z,100031.44
2023-02-19T09:35:59.950Z,100035.34
2023-02-19T09:38:27.663Z,100039.13
2023-02-19T09:40:57.446Z,100051.59
2023-02-19T09:43:28.600Z,100050.78
2023-02-19T09:46:03.741Z,100052.03
2023-02-19T09:48:32.140Z,100058.91
2023-02-19T09:51:01.585Z,100066.34
2023-02-19T09:53:36.643Z,100067.59
2023-02-19T09:56:05.846Z,100074.75
2023-02-19T09:58:36.352Z,100070.84
2023-02-19T10:01:10.971Z,100064.53
2023-02-19T10:03:40.204Z,100080.50
2023-02-19T10:06:14.942Z,100077.28
2023-02-19T10:08:45.631Z,100094.78
2023-02-19T10:11:14.694Z,100091.69
2023-02-19T10:13:45.787Z,100099.84
2023-02-19T10:16:19.418Z,100101.53
2023-02-19T10:18:47.479Z,100109.09
2023-02-19T10:21:22.698Z,100116.81
2023-02-19T10:23:53.698Z,100117.69
2023-02-19T10:26:23.395Z,100120.84
2023-02-19T10:28:51.477Z,100119.75
2023-02-19T10:31:23.820Z,100132.25
2023-02-19T10:33:53.393Z,100125.09
2023-02-19T10:36:33.177Z,100137.63
2023-02-19T10:39:02.275Z,100136.91
2023-02-19T10:41:32.896Z,100139.84
2023-02-19T10:44:07.964Z,100138.03
2023-02-19T10:46:43.746Z,100143.53
2023-02-19T10:49:22.049Z,100149.84
2023-02-19T10:51:52.339Z,100151.69
2023-02-19T10:54:24.462Z,100159.94
2023-02-19T10:56:52.343Z,100163.19
2023-02-19T10:59:25.747Z,100163.50
2023-02-19T11:01:56.514Z,100163.50
2023-02-19T11:04:25.824Z,100170.78
2023-02-19T11:06:54.674Z,100175.53
2023-02-19T11:09:29.323Z,100173.03
2023-02-19T11:11:58.156Z,100172.59
2023-02-19T11:14:27.393Z,100172.97
2023-02-19T11:16:59.105Z,100172.13
2023-02-19T11:19:31.141Z,100177.81
2023-02-19T11:21:59.852Z,100188.59
2023-02-19T11:24:32.111Z,100181.09
2023-02-19T11:27:00.848Z,100181.94
2023-02-19T11:29:29.729Z,100176.69
2023-02-19T11:32:22.320Z,100169.59
2023-02-19T11:34:49.951Z,100173.72
2023-02-19T11:37:19.944Z,100187.22
2023-02-19T11:39:49.261Z,100187.59
2023-02-19T11:42:37.456Z,100187.22
2023-02-19T11:45:17.522Z,100187.22
2023-02-19T11:48:16.278Z,100189.28
2023-02-19T11:50:58.150Z,100183.69
2023-02-19T11:53:30.936Z,100193.53
2023-02-19T11:56:19.894Z,100184.81
2023-02-19T11:59:00.779Z,100195.50
2023-02-19T12:01:58.549Z,100202.63
2023-02-19T12:04:47.328Z,100202.91
2023-02-19T12:07:30.756Z,100208.63
2023-02-19T12:10:08.301Z,100205.97
2023-02-19T12:16:05.842Z,100223.88
2023-02-19T12:18:55.406Z,100225.25
2023-02-19T12:21:41.158Z,100227.84
2023-02-19T12:24:28.982Z,100223.59
2023-02-19T12:27:14.394Z,100230.28
2023-02-19T12:29:56.252Z,100233.59
2023-02-19T12:32:50.277Z,100238.47
2023-02-19T12:38:34.038Z,100230.59
2023-02-19T12:41:27.642Z,100241.25
2023-02-19T12:44:02.517Z,100250.56
2023-02-19T12:46:37.327Z,100247.75
2023-02-19T12:49:12.307Z,100258.72
2023-02-19T12:51:45.447Z,100262.75
2023-02-19T12:54:19.421Z,100265.41
2023-02-19T12:56:55.281Z,100267.38
2023-02-19T12:59:28.253Z,100274.19
2023-02-19T13:02:01.918Z,100281.28
2023-02-19T13:04:42.840Z,100285.50
2023-02-19T13:07:14.674Z,100272.28
2023-02-19T13:09:49.081Z,100296.06
2023-02-19T13:12:26.072Z,100289.44
2023-02-19T13:14:58.802Z,100288.16
2023-02-19T13:17:32.056Z,100294.03
2023-02-19T13:20:08.372Z,100301.91
2023-02-19T13:22:41.665Z,100292.38
2023-02-19T13:25:11.908Z,100295.47
2023-02-19T13:28:04.202Z,100301.13
2023-02-19T13:31:01.897Z,100297.31
2023-02-19T13:33:42.424Z,100297.75
2023-02-19T13:36:19.395Z,100293.94
2023-02-19T13:38:49.356Z,100290.28
2023-02-19T13:41:20.609Z,100297.84
2023-02-19T13:43:58.501Z,100296.19
2023-02-19T13:46:35.072Z,100293.88
2023-02-19T13:49:25.508Z,100301.72
2023-02-19T13:51:54.355Z,100301.44
2023-02-19T13:54:24.605Z,100308.06
2023-02-19T13:57:20.556Z,100306.97
2023-02-19T13:59:50.148Z,100314.31
2023-02-19T14:02:31.288Z,100322.63
2023-02-19T14:05:01.871Z,100321.22
2023-02-19T14:08:02.188Z,100317.84
2023-02-19T14:10:57.335Z,100321.63
2023-02-19T14:14:01.470Z,100333.84
2023-02-19T14:16:54.882Z,100331.47
2023-02-19T14:19:51.473Z,100345.19
2023-02-19T14:22:47.888Z,100350.84
2023-02-19T14:25:28.651Z,100358.56
2023-02-19T14:28:02.196Z,100363.09
2023-02-19T14:30:32.675Z,100360.31
2023-02-19T14:33:11.678Z,100369.88
2023-02-19T14:35:44.002Z,100362.91
2023-02-19T14:38:20.507Z,100366.56
2023-02-19T14:40:50.583Z,100369.47
2023-02-19T14:43:21.155Z,100376.56
2023-02-19T14:45:53.149Z,100376.28
2023-02-19T14:48:27.150Z,100386.94
2023-02-19T14:51:00.891Z,100388.31
2023-02-19T14:53:30.108Z,100385.03
2023-02-19T14:56:00.124Z,100387.56
2023-02-19T14:58:31.857Z,100404.09
2023-02-19T15:00:59.959Z,100409.28
2023-02-19T15:03:37.760Z,100406.56
2023-02-19T15:06:12.835Z,100416.94
2023-02-19T15:08:45.422Z,100420.59
2023-02-19T15:11:20.739Z,100414.28
2023-02-19T15:13:51.464Z,100414.56
2023-02-19T15:16:21.289Z,100417.75
2023-02-19T15:18:51.864Z,100424.06
2023-02-19T15:21:24.442Z,100422.75
2023-02-19T15:23:55.076Z,100431.22
2023-02-19T15:26:27.459Z,100426.22
2023-02-19T15:28:59.703Z,100427.72
2023-02-19T15:31:27.391Z,100427.63
2023-02-19T15:33:56.988Z,100440.91
2023-02-19T15:36:31.258Z,100438.47
2023-02-19T15:39:01.200Z,100442.75
2023-02-19T15:41:34.364Z,100448.44
2023-02-19T15:44:19.195Z,100453.56
2023-02-19T15:46:48.395Z,100463.91
2023-02-19T15:49:22.197Z,100461.63
2023-02-19T15:51:55.118Z,100463.31
2023-02-19T15:54:27.628Z,100471.41
2023-02-19T15:56:58.846Z,100477.16
2023-02-19T15:59:34.209Z,100476.56
2023-02-19T16:02:03.038Z,100482.22
2023-02-19T16:04:34.632Z,100487.94
2023-02-19T16:07:03.372Z,100499.16
2023-02-19T16:09:37.350Z,100499.13
2023-02-19T16:12:20.305Z,100503.19
2023-02-19T16:14:50.728Z,100500.66
2023-02-19T16:17:20.751Z,100501.50
2023-02-19T16:19:54.659Z,100497.97
2023-02-19T16:22:25.470Z,100512.72
2023-02-19T16:24:55.747Z,100508.28
2023-02-19T16:27:30.463Z,100519.69
2023-02-19T16:29:59.153Z,100518.59
2023-02-19T16:32:27.530Z,100517.25
2023-02-19T16:34:56.605Z,100526.84
2023-02-19T16:37:36.732Z,100533.88
2023-02-19T16:41:00.902Z,100549.31
2023-02-19T16:43:31.630Z,100547.63
2023-02-19T16:46:00.278Z,100542.06
2023-02-19T16:48:28.846Z,100549.56
2023-02-19T16:51:02.203Z,100549.44
2023-02-19T16:53:31.369Z,100560.94
2023-02-19T16:55:59.119Z,100563.69
2023-02-19T16:58:27.623Z,100570.56
2023-02-19T17:00:55.450Z,100568.56
2023-02-19T17:03:25.903Z,100569.41
2023-02-19T17:05:53.880Z,100572.19
2023-02-19T17:08:41.539Z,100586.31
2023-02-19T17:11:12.600Z,100593.09
2023-02-19T17:13:41.912Z,100588.38
2023-02-19T17:16:17.144Z,100603.38
2023-02-19T17:18:45.380Z,100609.31
2023-02-19T17:21:15.943Z,100598.91
2023-02-19T17:23:45.710Z,100609.53
2023-02-19T17:26:14.877Z,100608.91
2023-02-19T17:28:42.910Z,100606.13
2023-02-19T17:31:11.557Z,100608.34
2023-02-19T17:33:39.973Z,100615.72
2023-02-19T17:36:08.312Z,100611.13
2023-02-19T17:38:36.409Z,100614.50
2023-02-19T17:41:05.870Z,100620.28
2023-02-19T17:43:34.251Z,100621.66
2023-02-19T17:46:02.078Z,100623.69
2023-02-19T17:48:30.532Z,100628.25
2023-02-19T17:50:58.307Z,100639.03
2023-02-19T17:53:26.455Z,100640.59
2023-02-19T17:55:54.186Z,100650.16
2023-02-19T17:58:23.798Z,100650.88
2023-02-19T18:00:51.570Z,100649.19
2023-02-19T18:03:19.965Z,100656.72
2023-02-19T18:05:47.833Z,100658.28
2023-02-19T18:08:16.376Z,100657.41
2023-02-19T18:10:43.981Z,100662.78
2023-02-19T18:13:11.943Z,100661.41
2023-02-19T18:15:41.418Z,100659.47
2023-02-19T18:18:09.418Z,100668.97
2023-02-19T18:20:37.127Z,100663.72
2023-02-19T18:23:05.552Z,100671.00
2023-02-19T18:25:33.202Z,100676.22
2023-02-19T18:28:01.308Z,100676.69
2023-02-19T18:30:29.219Z,100688.44
2023-02-19T18:32:59.298Z,100691.09
2023-02-19T18:35:27.032Z,100693.66
2023-02-19T18:37:55.516Z,100705.38
2023-02-19T18:40:24.259Z,100705.63
2023-02-19T18:42:52.817Z,100698.38
2023-02-19T18:45:20.472Z,100703.31
2023-02-19T18:47:49.372Z,100709.69
2023-02-19T18:50:20.172Z,100714.72
2023-02-19T18:52:48.231Z,100712.03
2023-02-19T18:55:15.949Z,100716.13
2023-02-19T18:57:44.198Z,100718.41
2023-02-19T19:00:17.741Z,100715.56
2023-02-19T19:02:49.758Z,100712.91
2023-02-19T19:05:21.505Z,100715.97
2023-02-19T19:07:49.892Z,100717.50
2023-02-19T19:10:18.376Z,100716.44
2023-02-19T19:12:46.896Z,100719.34
2023-02-19T19:15:17.978Z,100708.66
2023-02-19T19:17:47.038Z,100704.31
2023-02-19T19:20:16.267Z,100707.69
2023-02-19T19:22:45.860Z,100716.56
2023-02-19T19:25:13.391Z,100722.38
2023-02-19T19:27:43.263Z,100717.72
2023-02-19T19:30:11.838Z,100722.09
2023-02-19T19:32:40.180Z,100722.94
2023-02-19T19:35:08.464Z,100725.69
2023-02-19T19:37:37.036Z,100734.94
2023-02-19T19:40:07.639Z,100748.63
2023-02-19T19:42:35.646Z,100738.56
2023-02-19T19:45:03.612Z,100738.34
2023-02-19T19:47:31.883Z,100736.44
2023-02-19T19:49:59.778Z,100738.66
2023-02-19T19:52:28.080Z,100741.22
2023-02-19T19:54:55.706Z,100740.56
2023-02-19T19:57:25.713Z,100750.88
2023-02-19T19:59:53.473Z,100759.91
2023-02-19T20:02:21.791Z,100763.63
2023-02-19T20:04:49.533Z,100763.31
2023-02-19T20:07:17.625Z,100761.50
2023-02-19T20:09:48.304Z,100764.88
2023-02-19T20:12:16.676Z,100764.81
2023-02-19T20:14:47.021Z,100760.66
2023-02-19T20:17:15.381Z,100753.97
2023-02-19T20:19:42.985Z,100766.50
2023-02-19T20:22:11.021Z,100777.56
2023-02-19T20:24:39.312Z,100772.53
2023-02-19T20:27:07.866Z,100776.38
2023-02-19T20:29:35.859Z,100773.59
2023-02-19T20:32:05.903Z,100784.31
2023-02-19T20:34:34.107Z,100782.19
2023-02-19T20:37:02.281Z,100782.94
2023-02-19T20:39:30.464Z,100784.00
2023-02-19T20:41:59.783Z,100787.72
2023-02-19T20:44:28.765Z,100788.13
2023-02-19T20:46:58.333Z,100790.25
2023-02-19T20:49:29.413Z,100792.56
2023-02-19T20:51:59.395Z,100793.63
2023-02-19T20:54:29.191Z,100800.22
2023-02-19T20:56:59.965Z,100808.69
2023-02-19T20:59:29.521Z,100811.84
2023-02-19T21:01:58.602Z,100810.94
2023-02-19T21:04:27.978Z,100811.91
2023-02-19T21:06:56.888Z,100825.56
2023-02-19T21:09:24.994Z,100831.59
2023-02-19T21:11:53.392Z,100831.59
2023-02-19T21:14:20.978Z,100822.47
2023-02-19T21:16:49.152Z,100828.00
2023-02-19T21:19:17.099Z,100831.72
2023-02-19T21:21:47.471Z,100834.69
2023-02-19T21:24:15.740Z,100841.03
2023-02-19T21:26:44.371Z,100847.16
2023-02-19T21:29:16.503Z,100848.69
2023-02-19T21:31:46.185Z,100847.97
2023-02-19T21:34:15.642Z,100847.28
2023-02-19T21:36:44.298Z,100845.47
2023-02-19T21:39:15.909Z,100847.84
2023-02-19T21:41:44.179Z,100849.34
2023-02-19T21:44:12.127Z,100845.91
2023-02-19T21:46:40.449Z,100847.78
2023-02-19T21:49:08.281Z,100853.56
2023-02-19T21:51:37.798Z,100855.47
2023-02-19T21:54:07.162Z,100863.69
2023-02-19T21:56:37.618Z,100868.66
2023-02-19T21:59:05.640Z,100878.59
2023-02-19T22:01:36.446Z,100867.53
2023-02-19T22:04:04.475Z,100868.53
2023-02-19T22:06:32.919Z,100870.53
2023-02-19T22:09:01.710Z,100875.22
2023-02-19T22:11:30.217Z,100884.78
2023-02-19T22:13:59.552Z,100881.13
2023-02-19T22:16:27.891Z,100875.44
2023-02-19T22:18:57.486Z,100880.91
2023-02-19T22:21:27.444Z,100887.16
2023-02-19T22:23:55.788Z,100887.66
2023-02-19T22:26:25.820Z,100879.06
2023-02-19T22:28:54.490Z,100880.75
2023-02-19T22:31:25.668Z,100882.25
2023-02-19T22:33:53.993Z,100875.44
2023-02-19T22:36:23.952Z,100879.19
2023-02-19T22:38:52.108Z,100874.84
2023-02-19T22:41:20.984Z,100873.19
2023-02-19T22:43:49.511Z,100863.56
2023-02-19T22:46:19.639Z,100864.03
2023-02-19T22:48:49.461Z,100873.28
2023-02-19T22:51:19.820Z,100882.28
2023-02-19T22:53:48.635Z,100876.97
2023-02-19T22:56:18.390Z,100879.34
2023-02-19T22:58:46.311Z,100874.63
2023-02-19T23:01:15.413Z,100875.31
2023-02-19T23:03:49.836Z,100875.31
2023-02-19T23:06:21.937Z,100880.19
2023-02-19T23:08:49.931Z,100879.19
2023-02-19T23:11:21.515Z,100876.22
2023-02-19T23:13:49.708Z,100872.94
2023-02-19T23:16:18.080Z,100875.56
2023-02-19T23:18:46.023Z,100868.81
2023-02-19T23:21:15.944Z,100870.56
2023-02-19T23:23:44.735Z,100864.13
2023-02-19T23:26:14.713Z,100868.69
2023-02-19T23:28:44.078Z,100867.91
2023-02-19T23:31:12.874Z,100863.56
2023-02-19T23:33:40.953Z,100859.22
2023-02-19T23:36:10.065Z,100859.34
2023-02-19T23:38:43.475Z,100856.97
2023-02-19T23:41:13.342Z,100857.13
2023-02-19T23:43:41.276Z,100853.44
2023-02-19T23:46:09.658Z,100856.50
2023-02-19T23:48:37.417Z,100849.09
2023-02-19T23:51:06.819Z,100847.81
2023-02-19T23:53:35.706Z,100834.47
2023-02-19T23:56:06.199Z,100834.53
2023-02-19T23:58:33.934Z,100835.66
